Time;durP1;ratioP1;P1;durP2;ratioP2;P2;SDS_P1;SDS_P2;PMS_P1;PMS_P2;Temp;Humidity;BMP_temperature;BMP_pressure;BME280_temperature;BME280_humidity;BME280_pressure;Samples;Min_cycle;Max_cycle;Signal;HPM_P1;HPM_P2
2022/06/23 00:01:54;;;;;;;6.38;2.90;;;;;;;;;;4163750;28;20164;-76
2022/06/23 00:03:57;;;;;;;9.80;2.75;;;;;;;;;;4162419;28;20058;-76
2022/06/23 00:06:00;;;;;;;7.32;3.05;;;;;;;;;;4160450;28;20675;-76
2022/06/23 00:08:05;;;;;;;11.05;2.50;;;;;;;;;;4158562;28;20798;-77
2022/06/23 00:10:22;;;;;;;12.07;3.22;;;;;;;;;;4156592;28;20057;-76
2022/06/23 00:12:32;;;;;;;9.63;2.42;;;;;;;;;;4154163;28;20062;-76
2022/06/23 00:14:34;;;;;;;11.38;3.85;;;;;;;;;;4163205;28;20065;-77
2022/06/23 00:16:36;;;;;;;9.02;3.10;;;;;;;;;;4163514;28;20050;-77
2022/06/23 00:18:38;;;;;;;10.73;2.83;;;;;;;;;;4165694;28;20856;-77
2022/06/23 00:20:49;;;;;;;5.05;2.85;;;;;;;;;;4158856;28;20062;-77
2022/06/23 00:22:53;;;;;;;8.80;3.58;;;;;;;;;;4156584;28;21253;-77
2022/06/23 00:24:56;;;;;;;8.98;2.70;;;;;;;;;;4153646;28;20100;-76
2022/06/23 00:26:59;;;;;;;11.15;3.08;;;;;;;;;;4160250;28;20058;-77
2022/06/23 00:29:13;;;;;;;5.70;2.38;;;;;;;;;;4161596;28;20058;-77
2022/06/23 00:31:25;;;;;;;7.47;2.33;;;;;;;;;;4155961;28;20065;-77
2022/06/23 00:33:29;;;;;;;12.02;3.65;;;;;;;;;;4162348;28;20062;-76
2022/06/23 00:35:31;;;;;;;11.63;3.00;;;;;;;;;;4163920;28;20111;-77
2022/06/23 00:37:34;;;;;;;12.73;3.40;;;;;;;;;;4159497;28;20066;-77
2022/06/23 00:39:38;;;;;;;6.78;2.42;;;;;;;;;;4160353;28;20062;-76
2022/06/23 00:41:42;;;;;;;12.25;2.90;;;;;;;;;;4155278;28;20217;-77
2022/06/23 00:43:46;;;;;;;8.25;3.53;;;;;;;;;;4164565;28;20058;-77
2022/06/23 00:45:52;;;;;;;6.50;2.88;;;;;;;;;;4162075;28;20057;-76
2022/06/23 00:47:55;;;;;;;11.27;3.38;;;;;;;;;;4163677;28;20228;-76
2022/06/23 00:50:16;;;;;;;7.30;2.50;;;;;;;;;;4159181;28;20073;-77
2022/06/23 00:52:24;;;;;;;10.32;3.28;;;;;;;;;;4157878;28;20053;-77
2022/06/23 00:54:32;;;;;;;11.02;3.20;;;;;;;;;;4158080;28;20097;-76
2022/06/23 00:56:48;;;;;;;9.10;3.38;;;;;;;;;;4160348;28;20857;-77
2022/06/23 00:58:56;;;;;;;7.95;3.63;;;;;;;;;;4159728;28;20067;-76
2022/06/23 01:01:02;;;;;;;8.27;3.70;;;;;;;;;;4159760;28;20058;-76
2022/06/23 01:03:07;;;;;;;12.30;4.03;;;;;;;;;;4153011;28;21149;-76
2022/06/23 01:05:13;;;;;;;10.57;4.40;;;;;;;;;;4154125;28;20054;-76
2022/06/23 01:07:21;;;;;;;11.27;3.25;;;;;;;;;;4157419;28;20085;-76
2022/06/23 01:09:44;;;;;;;10.27;3.45;;;;;;;;;;4160389;28;20046;-76
2022/06/23 01:11:48;;;;;;;10.65;3.15;;;;;;;;;;4157404;28;20789;-76
2022/06/23 01:13:50;;;;;;;11.90;3.15;;;;;;;;;;4155675;28;20049;-76
2022/06/23 01:15:54;;;;;;;11.90;4.28;;;;;;;;;;4155311;28;20065;-77
2022/06/23 01:18:12;;;;;;;8.27;3.10;;;;;;;;;;4157441;28;20062;-76
2022/06/23 01:20:17;;;;;;;10.85;3.45;;;;;;;;;;4154290;28;20062;-77
2022/06/23 01:22:38;;;;;;;11.05;3.63;;;;;;;;;;4159274;28;20049;-76
2022/06/23 01:25:02;;;;;;;10.13;3.63;;;;;;;;;;4156240;28;20080;-77
2022/06/23 01:27:22;;;;;;;8.48;3.78;;;;;;;;;;4160817;28;20058;-77
2022/06/23 01:29:34;;;;;;;12.52;4.15;;;;;;;;;;4156495;28;20603;-76
2022/06/23 01:31:47;;;;;;;6.70;3.47;;;;;;;;;;4150860;28;20054;-76
2022/06/23 01:34:00;;;;;;;7.47;3.50;;;;;;;;;;4154488;28;20058;-76
2022/06/23 01:36:20;;;;;;;11.00;3.33;;;;;;;;;;4155432;28;20087;-76
2022/06/23 01:38:25;;;;;;;12.27;3.80;;;;;;;;;;4151965;28;20812;-76
2022/06/23 01:40:35;;;;;;;6.72;3.65;;;;;;;;;;4149985;28;20054;-76
2022/06/23 01:42:40;;;;;;;6.20;3.70;;;;;;;;;;4148768;28;20066;-75
2022/06/23 01:44:50;;;;;;;7.70;3.70;;;;;;;;;;4155698;28;20064;-74
2022/06/23 01:46:55;;;;;;;10.85;3.70;;;;;;;;;;4157533;28;20057;-75
2022/06/23 01:49:00;;;;;;;12.00;4.20;;;;;;;;;;4163783;28;20057;-76
2022/06/23 01:51:03;;;;;;;8.73;3.85;;;;;;;;;;4152919;28;20069;-76
2022/06/23 01:53:12;;;;;;;8.70;3.17;;;;;;;;;;4156149;28;20054;-76
2022/06/23 01:55:23;;;;;;;8.48;3.97;;;;;;;;;;4153811;28;20766;-76
2022/06/23 01:57:38;;;;;;;11.20;3.38;;;;;;;;;;4153195;28;20090;-76
2022/06/23 01:59:45;;;;;;;7.78;3.47;;;;;;;;;;4160047;28;20062;-77
2022/06/23 02:01:53;;;;;;;7.53;3.70;;;;;;;;;;4155540;28;20132;-76
2022/06/23 02:04:00;;;;;;;6.50;3.92;;;;;;;;;;4155835;28;20058;-76
2022/06/23 02:06:05;;;;;;;13.68;3.83;;;;;;;;;;4155318;28;20958;-76
2022/06/23 02:08:34;;;;;;;8.73;3.60;;;;;;;;;;4158350;28;20854;-76
2022/06/23 02:10:51;;;;;;;10.63;3.67;;;;;;;;;;4141406;28;20061;-76
2022/06/23 02:12:59;;;;;;;7.18;3.33;;;;;;;;;;4157185;28;20081;-76
2022/06/23 02:15:37;;;;;;;14.73;3.60;;;;;;;;;;4160047;28;20760;-76
2022/06/23 02:17:45;;;;;;;7.55;3.78;;;;;;;;;;4131648;28;20063;-76
2022/06/23 02:19:52;;;;;;;9.50;3.70;;;;;;;;;;4144697;28;20135;-76
2022/06/23 02:22:01;;;;;;;12.63;3.72;;;;;;;;;;4157463;28;20136;-76
2022/06/23 02:24:08;;;;;;;15.02;4.35;;;;;;;;;;4156938;28;20057;-76
2022/06/23 02:26:20;;;;;;;6.57;3.30;;;;;;;;;;4158765;28;20062;-76
2022/06/23 02:28:25;;;;;;;14.40;4.57;;;;;;;;;;4157243;28;20861;-76
2022/06/23 02:30:34;;;;;;;9.93;3.55;;;;;;;;;;4158132;28;20093;-75
2022/06/23 02:32:39;;;;;;;9.15;4.03;;;;;;;;;;4155765;28;20766;-76
2022/06/23 02:34:47;;;;;;;10.00;3.97;;;;;;;;;;4154594;28;20058;-76
2022/06/23 02:37:02;;;;;;;9.38;3.08;;;;;;;;;;4153153;28;20057;-76
2022/06/23 02:39:06;;;;;;;9.95;4.07;;;;;;;;;;4159791;28;20064;-77
2022/06/23 02:41:12;;;;;;;8.57;3.55;;;;;;;;;;4155003;28;20062;-77
2022/06/23 02:43:25;;;;;;;5.22;3.05;;;;;;;;;;4161071;28;20848;-76
2022/06/23 02:45:46;;;;;;;11.05;4.63;;;;;;;;;;4153784;28;20625;-76
2022/06/23 02:47:52;;;;;;;13.70;5.13;;;;;;;;;;4150935;28;20124;-76
2022/06/23 02:50:08;;;;;;;13.68;4.25;;;;;;;;;;4154721;28;20149;-76
2022/06/23 02:52:10;;;;;;;9.82;3.50;;;;;;;;;;4157447;28;20063;-76
2022/06/23 02:54:37;;;;;;;13.85;3.60;;;;;;;;;;4150388;28;20065;-76
2022/06/23 02:56:44;;;;;;;9.68;4.20;;;;;;;;;;4153443;28;20053;-76
2022/06/23 02:58:51;;;;;;;12.43;4.40;;;;;;;;;;4153214;28;20105;-76
2022/06/23 03:01:01;;;;;;;8.50;4.22;;;;;;;;;;4153352;28;20080;-76
2022/06/23 03:03:09;;;;;;;7.65;3.38;;;;;;;;;;4159818;28;20054;-76
2022/06/23 03:05:17;;;;;;;11.18;4.05;;;;;;;;;;4151787;28;20105;-76
2022/06/23 03:07:38;;;;;;;9.80;3.97;;;;;;;;;;4156498;28;20128;-76
2022/06/23 03:09:45;;;;;;;10.23;3.53;;;;;;;;;;4150199;28;20054;-76
2022/06/23 03:11:52;;;;;;;11.52;4.50;;;;;;;;;;4154588;28;20074;-76
2022/06/23 03:13:57;;;;;;;10.10;3.38;;;;;;;;;;4164561;28;20058;-76
2022/06/23 03:16:18;;;;;;;11.52;4.20;;;;;;;;;;4161188;28;20667;-76
2022/06/23 03:18:33;;;;;;;9.98;3.55;;;;;;;;;;4160155;28;20062;-76
2022/06/23 03:20:39;;;;;;;6.05;3.83;;;;;;;;;;4165371;28;20084;-76
2022/06/23 03:22:55;;;;;;;6.65;3.05;;;;;;;;;;4162043;28;20130;-76
2022/06/23 03:25:07;;;;;;;12.43;4.07;;;;;;;;;;4161550;28;20062;-76
2022/06/23 03:27:19;;;;;;;5.13;3.22;;;;;;;;;;4160256;28;20778;-76
2022/06/23 03:29:29;;;;;;;8.23;4.10;;;;;;;;;;4155990;28;20072;-76
2022/06/23 03:31:37;;;;;;;15.73;5.22;;;;;;;;;;4159295;28;20058;-76
2022/06/23 03:33:48;;;;;;;8.40;4.20;;;;;;;;;;4160543;28;20094;-76
2022/06/23 03:35:54;;;;;;;11.77;4.88;;;;;;;;;;4159328;28;20086;-76
2022/06/23 03:38:03;;;;;;;11.95;4.85;;;;;;;;;;4157642;28;20062;-76
2022/06/23 03:42:50;;;;;;;9.75;4.53;;;;;;;;;;4159911;28;20061;-76
2022/06/23 03:44:58;;;;;;;22.70;5.32;;;;;;;;;;4159120;28;20062;-76
2022/06/23 03:47:21;;;;;;;12.70;5.43;;;;;;;;;;4156431;28;20723;-76
2022/06/23 03:49:42;;;;;;;7.53;4.45;;;;;;;;;;4164331;28;20068;-76
2022/06/23 03:51:54;;;;;;;15.77;5.32;;;;;;;;;;4163632;28;20061;-76
2022/06/23 03:53:56;;;;;;;15.50;4.97;;;;;;;;;;4160618;28;20067;-76
2022/06/23 03:56:00;;;;;;;10.45;4.57;;;;;;;;;;4154896;28;20155;-76
2022/06/23 03:58:23;;;;;;;9.35;5.13;;;;;;;;;;4161811;28;20053;-76
2022/06/23 04:00:31;;;;;;;15.23;4.65;;;;;;;;;;4143327;28;20116;-76
2022/06/23 04:02:44;;;;;;;8.40;4.03;;;;;;;;;;4156756;28;20053;-76
2022/06/23 04:04:53;;;;;;;10.70;4.53;;;;;;;;;;4152690;28;20778;-76
2022/06/23 04:06:55;;;;;;;12.05;4.95;;;;;;;;;;4154186;28;20057;-76
2022/06/23 04:08:57;;;;;;;16.70;5.00;;;;;;;;;;4151762;28;20062;-76
2022/06/23 04:11:43;;;;;;;11.95;5.18;;;;;;;;;;4150668;28;20058;-76
2022/06/23 04:13:31;;;;;;;16.80;6.60;;;;;;;;;;4157008;28;21223;-76
2022/06/23 04:15:39;;;;;;;11.02;4.95;;;;;;;;;;4151733;28;20061;-76
2022/06/23 04:18:02;;;;;;;11.02;4.38;;;;;;;;;;4151584;28;20146;-75
2022/06/23 04:20:13;;;;;;;11.25;4.25;;;;;;;;;;4153952;28;20066;-76
2022/06/23 04:22:35;;;;;;;8.70;5.45;;;;;;;;;;4154628;28;20062;-76
2022/06/23 04:24:42;;;;;;;7.88;4.53;;;;;;;;;;4135605;28;20112;-76
2022/06/23 04:26:46;;;;;;;15.27;5.20;;;;;;;;;;4158447;28;20062;-76
2022/06/23 04:28:50;;;;;;;14.55;4.38;;;;;;;;;;4156929;28;20064;-76
2022/06/23 04:30:54;;;;;;;17.52;5.00;;;;;;;;;;4158837;28;20057;-78
2022/06/23 04:32:57;;;;;;;11.52;5.32;;;;;;;;;;4162136;28;20073;-75
2022/06/23 04:35:05;;;;;;;11.38;5.32;;;;;;;;;;4156307;28;20064;-76
2022/06/23 04:37:18;;;;;;;15.45;6.10;;;;;;;;;;4160629;28;20793;-76
2022/06/23 04:39:36;;;;;;;18.48;8.70;;;;;;;;;;4155576;28;20066;-76
2022/06/23 04:41:43;;;;;;;8.85;5.85;;;;;;;;;;4154459;28;20759;-76
2022/06/23 04:43:57;;;;;;;16.50;6.75;;;;;;;;;;4156627;28;20054;-75
2022/06/23 04:46:02;;;;;;;10.98;4.28;;;;;;;;;;4161248;28;20091;-75
2022/06/23 04:48:08;;;;;;;9.27;4.40;;;;;;;;;;4157747;28;20101;-76
2022/06/23 04:50:15;;;;;;;9.80;4.90;;;;;;;;;;4158587;28;20136;-77
2022/06/23 04:52:20;;;;;;;8.90;5.32;;;;;;;;;;4159347;28;20062;-77
2022/06/23 04:54:25;;;;;;;10.05;4.93;;;;;;;;;;4159229;28;20066;-77
2022/06/23 04:56:30;;;;;;;14.63;6.28;;;;;;;;;;4159047;28;20058;-77
2022/06/23 04:58:34;;;;;;;13.90;6.93;;;;;;;;;;4153724;28;20058;-76
2022/06/23 05:00:43;;;;;;;12.02;4.93;;;;;;;;;;4159559;28;20066;-77
2022/06/23 05:02:50;;;;;;;10.30;4.97;;;;;;;;;;4161190;28;20628;-76
2022/06/23 05:05:00;;;;;;;10.07;5.03;;;;;;;;;;4167479;28;20069;-76
2022/06/23 05:07:02;;;;;;;12.63;4.85;;;;;;;;;;4169224;28;20068;-77
2022/06/23 05:09:07;;;;;;;9.70;5.60;;;;;;;;;;4166016;28;20060;-76
2022/06/23 05:11:29;;;;;;;7.60;4.28;;;;;;;;;;4174813;28;20055;-77
2022/06/23 05:13:38;;;;;;;12.38;5.10;;;;;;;;;;4172318;28;20127;-76
2022/06/23 05:15:45;;;;;;;9.85;4.80;;;;;;;;;;4172053;28;20863;-74
2022/06/23 05:17:50;;;;;;;13.10;4.72;;;;;;;;;;4173514;28;20054;-77
2022/06/23 05:19:55;;;;;;;10.88;4.82;;;;;;;;;;4172727;28;20112;-76
2022/06/23 05:22:00;;;;;;;13.25;5.05;;;;;;;;;;4166471;28;20059;-76
2022/06/23 05:24:22;;;;;;;17.60;5.28;;;;;;;;;;4164269;28;20869;-77
2022/06/23 05:26:30;;;;;;;14.68;4.30;;;;;;;;;;4173490;28;20061;-79
2022/06/23 05:28:36;;;;;;;10.25;4.40;;;;;;;;;;4164223;28;20164;-78
2022/06/23 05:30:48;;;;;;;11.65;4.18;;;;;;;;;;4183003;28;20461;-77
2022/06/23 05:32:55;;;;;;;17.35;4.90;;;;;;;;;;4205261;28;20140;-79
2022/06/23 05:35:00;;;;;;;9.27;4.45;;;;;;;;;;4174642;28;20084;-77
2022/06/23 05:37:09;;;;;;;10.07;3.80;;;;;;;;;;4168606;28;20145;-78
2022/06/23 05:39:18;;;;;;;8.45;4.25;;;;;;;;;;4165801;28;20053;-78
2022/06/23 05:41:34;;;;;;;12.55;4.70;;;;;;;;;;4162095;28;20054;-78
2022/06/23 05:43:39;;;;;;;7.75;3.78;;;;;;;;;;4164329;28;20053;-78
2022/06/23 05:45:43;;;;;;;9.20;3.90;;;;;;;;;;4180841;28;20077;-78
2022/06/23 05:47:45;;;;;;;9.93;3.95;;;;;;;;;;4179962;28;20065;-78
2022/06/23 05:49:54;;;;;;;8.80;3.67;;;;;;;;;;4169315;28;20905;-78
2022/06/23 05:51:59;;;;;;;15.38;3.80;;;;;;;;;;4168649;28;20077;-78
2022/06/23 05:54:04;;;;;;;12.27;3.88;;;;;;;;;;4163836;28;20058;-78
2022/06/23 05:56:12;;;;;;;13.32;4.40;;;;;;;;;;4169474;28;20061;-78
2022/06/23 05:58:17;;;;;;;15.38;4.15;;;;;;;;;;4168324;28;20868;-78
2022/06/23 06:00:41;;;;;;;10.85;3.80;;;;;;;;;;4164895;28;20118;-78
2022/06/23 06:02:49;;;;;;;11.25;4.07;;;;;;;;;;4166430;28;20062;-78
2022/06/23 06:04:53;;;;;;;8.52;3.30;;;;;;;;;;4163348;28;20058;-79
2022/06/23 06:06:55;;;;;;;6.82;3.88;;;;;;;;;;4177093;28;20049;-78
2022/06/23 06:11:20;;;;;;;7.57;3.58;;;;;;;;;;4169369;28;20108;-79
2022/06/23 06:13:27;;;;;;;10.48;3.70;;;;;;;;;;4170929;28;20816;-79
2022/06/23 06:15:32;;;;;;;6.68;2.70;;;;;;;;;;4173606;28;20099;-79
2022/06/23 06:17:36;;;;;;;10.73;3.88;;;;;;;;;;4174638;28;20630;-79
2022/06/23 06:19:38;;;;;;;11.55;3.58;;;;;;;;;;4179408;28;20062;-79
2022/06/23 06:21:40;;;;;;;6.80;4.03;;;;;;;;;;4188020;28;20138;-79
2022/06/23 06:23:49;;;;;;;6.82;3.53;;;;;;;;;;4182751;28;20056;-79
2022/06/23 06:25:51;;;;;;;7.88;4.00;;;;;;;;;;4187692;28;20061;-79
2022/06/23 06:27:55;;;;;;;12.48;4.10;;;;;;;;;;4178760;28;20141;-79
2022/06/23 06:29:58;;;;;;;11.50;3.53;;;;;;;;;;4175525;28;20054;-80
2022/06/23 06:32:00;;;;;;;8.45;2.90;;;;;;;;;;4161747;28;20084;-80
2022/06/23 06:34:06;;;;;;;6.50;3.15;;;;;;;;;;4164944;28;21170;-78
2022/06/23 06:36:22;;;;;;;9.88;3.75;;;;;;;;;;4168690;28;20038;-80
2022/06/23 06:38:26;;;;;;;6.43;3.00;;;;;;;;;;4176222;28;20100;-78
2022/06/23 06:40:29;;;;;;;11.95;3.35;;;;;;;;;;4170331;28;20053;-80
2022/06/23 06:42:33;;;;;;;10.55;2.88;;;;;;;;;;4168057;28;20057;-79
2022/06/23 06:44:36;;;;;;;8.98;2.70;;;;;;;;;;4166580;28;20168;-77
2022/06/23 06:46:40;;;;;;;8.98;3.80;;;;;;;;;;4157752;28;20073;-81
2022/06/23 06:48:43;;;;;;;12.75;4.10;;;;;;;;;;4172757;28;20156;-78
2022/06/23 06:50:50;;;;;;;8.02;2.72;;;;;;;;;;4171615;28;20864;-78
2022/06/23 06:52:52;;;;;;;9.55;2.65;;;;;;;;;;4179385;28;20087;-77
2022/06/23 06:54:57;;;;;;;11.20;3.03;;;;;;;;;;4169786;28;20801;-78
2022/06/23 06:57:04;;;;;;;9.05;2.90;;;;;;;;;;4173431;28;20156;-80
2022/06/23 06:59:12;;;;;;;14.07;3.30;;;;;;;;;;4166756;28;20085;-79
2022/06/23 07:01:18;;;;;;;12.68;3.00;;;;;;;;;;4174443;28;20053;-77
2022/06/23 07:03:23;;;;;;;11.82;3.05;;;;;;;;;;4169948;28;20057;-77
2022/06/23 07:05:26;;;;;;;11.38;2.90;;;;;;;;;;4166565;28;20066;-77
2022/06/23 07:07:32;;;;;;;7.93;2.65;;;;;;;;;;4174393;28;20066;-76
2022/06/23 07:10:01;;;;;;;7.85;2.67;;;;;;;;;;4188265;28;20067;-74
2022/06/23 07:12:16;;;;;;;8.77;3.05;;;;;;;;;;4161496;28;20059;-75
2022/06/23 07:14:31;;;;;;;5.85;2.38;;;;;;;;;;4171503;28;20160;-75
2022/06/23 07:16:43;;;;;;;7.50;2.53;;;;;;;;;;4160210;28;20092;-76
2022/06/23 07:18:50;;;;;;;9.68;2.72;;;;;;;;;;4149616;28;20069;-75
2022/06/23 07:21:02;;;;;;;8.15;2.47;;;;;;;;;;4159819;28;20093;-75
2022/06/23 07:23:09;;;;;;;9.43;2.75;;;;;;;;;;4154846;28;20140;-75
2022/06/23 07:25:16;;;;;;;5.78;3.22;;;;;;;;;;4158583;28;20636;-76
2022/06/23 07:27:22;;;;;;;7.22;3.20;;;;;;;;;;4158842;28;20908;-76
2022/06/23 07:29:26;;;;;;;5.15;2.63;;;;;;;;;;4165264;28;20853;-76
2022/06/23 07:31:30;;;;;;;10.73;2.97;;;;;;;;;;4165141;28;20786;-76
2022/06/23 07:33:53;;;;;;;5.38;3.03;;;;;;;;;;4158380;28;20097;-76
2022/06/23 07:35:57;;;;;;;5.68;2.42;;;;;;;;;;4158621;28;20062;-76
2022/06/23 07:38:00;;;;;;;10.23;2.35;;;;;;;;;;4161175;28;20184;-76
2022/06/23 07:40:05;;;;;;;6.97;2.55;;;;;;;;;;4177387;22;20053;-77
2022/06/23 07:42:07;;;;;;;6.72;3.25;;;;;;;;;;4172246;28;20131;-77
2022/06/23 07:44:21;;;;;;;5.32;2.35;;;;;;;;;;4167710;28;20065;-76
2022/06/23 07:46:23;;;;;;;5.25;2.40;;;;;;;;;;4161419;28;20093;-77
2022/06/23 07:48:27;;;;;;;5.75;2.55;;;;;;;;;;4166904;28;20097;-77
2022/06/23 07:50:29;;;;;;;4.45;2.20;;;;;;;;;;4169040;28;20070;-77
2022/06/23 07:52:31;;;;;;;4.82;2.58;;;;;;;;;;4158309;28;20059;-76
2022/06/23 07:54:33;;;;;;;8.40;2.72;;;;;;;;;;4164696;28;20065;-76
2022/06/23 07:56:39;;;;;;;10.40;3.22;;;;;;;;;;4177452;28;20069;-73
2022/06/23 07:58:42;;;;;;;7.20;2.35;;;;;;;;;;4168227;28;20137;-75
2022/06/23 08:00:46;;;;;;;6.72;2.45;;;;;;;;;;4171514;28;20059;-74
2022/06/23 08:03:00;;;;;;;7.72;2.45;;;;;;;;;;4175115;28;20054;-77
2022/06/23 08:05:14;;;;;;;3.65;2.10;;;;;;;;;;4174325;28;20069;-77
2022/06/23 08:07:16;;;;;;;7.63;2.25;;;;;;;;;;4177583;28;20064;-79
2022/06/23 08:09:22;;;;;;;5.88;2.08;;;;;;;;;;4177096;28;20768;-77
2022/06/23 08:14:09;;;;;;;4.82;2.03;;;;;;;;;;4173120;28;20058;-76
2022/06/23 08:18:51;;;;;;;9.10;2.58;;;;;;;;;;4174946;28;20061;-74
2022/06/23 08:21:07;;;;;;;5.63;2.30;;;;;;;;;;4172864;28;20080;-73
2022/06/23 08:23:11;;;;;;;8.43;2.17;;;;;;;;;;4169243;28;20064;-75
2022/06/23 08:25:13;;;;;;;4.78;1.98;;;;;;;;;;4170912;28;20072;-73
2022/06/23 08:27:28;;;;;;;6.03;1.83;;;;;;;;;;4172207;28;20046;-75
2022/06/23 08:29:33;;;;;;;7.90;2.15;;;;;;;;;;4170060;28;20931;-74
2022/06/23 08:31:35;;;;;;;4.80;1.77;;;;;;;;;;4171262;28;20690;-77
2022/06/23 08:33:58;;;;;;;8.70;2.55;;;;;;;;;;4172387;28;20054;-76
2022/06/23 08:36:06;;;;;;;8.40;2.25;;;;;;;;;;4166367;28;20185;-75
2022/06/23 08:38:09;;;;;;;4.93;2.10;;;;;;;;;;4172599;28;20121;-74
2022/06/23 08:40:22;;;;;;;5.97;1.92;;;;;;;;;;4172641;28;20058;-74
2022/06/23 08:42:29;;;;;;;5.47;2.28;;;;;;;;;;4171944;28;20058;-73
2022/06/23 08:44:52;;;;;;;9.25;2.17;;;;;;;;;;4175790;28;20144;-74
2022/06/23 08:47:06;;;;;;;4.97;2.03;;;;;;;;;;4166815;28;20069;-74
2022/06/23 08:49:27;;;;;;;4.00;2.08;;;;;;;;;;4164953;28;20924;-75
2022/06/23 08:51:29;;;;;;;4.22;2.28;;;;;;;;;;4172909;28;20058;-74
2022/06/23 08:53:45;;;;;;;5.70;2.45;;;;;;;;;;4165857;28;20069;-75
2022/06/23 08:55:54;;;;;;;5.20;1.80;;;;;;;;;;4172145;28;20062;-74
2022/06/23 08:58:02;;;;;;;5.28;2.08;;;;;;;;;;4165801;28;20841;-73
2022/06/23 09:00:07;;;;;;;7.10;2.35;;;;;;;;;;4168588;28;20174;-74
2022/06/23 09:02:14;;;;;;;9.93;2.28;;;;;;;;;;4166693;28;20396;-74
2022/06/23 09:04:39;;;;;;;6.95;2.17;;;;;;;;;;4167372;28;20100;-75
2022/06/23 09:06:57;;;;;;;6.40;1.88;;;;;;;;;;4168522;28;20132;-74
2022/06/23 09:09:18;;;;;;;4.07;2.03;;;;;;;;;;4162337;28;20770;-75
2022/06/23 09:11:35;;;;;;;6.32;2.33;;;;;;;;;;4164502;28;20046;-75
2022/06/23 09:13:44;;;;;;;10.02;2.45;;;;;;;;;;4166219;28;20061;-75
2022/06/23 09:15:49;;;;;;;8.40;2.50;;;;;;;;;;4157491;28;20141;-74
2022/06/23 09:17:56;;;;;;;5.85;2.10;;;;;;;;;;4168663;28;20143;-74
2022/06/23 09:20:13;;;;;;;8.52;2.55;;;;;;;;;;4174386;28;20058;-74
2022/06/23 09:22:35;;;;;;;5.72;1.67;;;;;;;;;;4172644;28;20046;-75
2022/06/23 09:24:38;;;;;;;5.28;1.98;;;;;;;;;;4168182;28;20875;-74
2022/06/23 09:26:40;;;;;;;4.68;1.80;;;;;;;;;;4187404;28;20045;-74
2022/06/23 09:28:42;;;;;;;5.50;2.67;;;;;;;;;;4179248;28;20844;-74
2022/06/23 09:30:53;;;;;;;22.13;3.67;;;;;;;;;;4172434;28;20053;-74
2022/06/23 09:32:57;;;;;;;6.63;1.73;;;;;;;;;;4176779;28;20053;-74
2022/06/23 09:35:14;;;;;;;5.10;1.67;;;;;;;;;;4170740;28;20084;-73
2022/06/23 09:37:34;;;;;;;10.45;1.92;;;;;;;;;;4170995;28;20875;-74
2022/06/23 09:40:01;;;;;;;8.38;1.40;;;;;;;;;;4173860;28;20057;-75
2022/06/23 09:42:17;;;;;;;11.93;2.15;;;;;;;;;;4170560;28;20065;-74
2022/06/23 09:44:29;;;;;;;5.13;1.77;;;;;;;;;;4168918;28;20050;-74
2022/06/23 09:46:34;;;;;;;5.25;1.60;;;;;;;;;;4166351;28;20046;-74
2022/06/23 09:48:45;;;;;;;5.70;1.83;;;;;;;;;;4172608;28;20061;-74
2022/06/23 09:50:47;;;;;;;5.32;1.80;;;;;;;;;;4169550;28;20841;-74
2022/06/23 09:53:07;;;;;;;8.05;1.85;;;;;;;;;;4167458;28;20065;-75
2022/06/23 09:55:21;;;;;;;4.72;1.83;;;;;;;;;;4164060;28;20066;-74
2022/06/23 09:57:29;;;;;;;4.53;1.75;;;;;;;;;;4171465;28;20062;-76
2022/06/23 09:59:50;;;;;;;5.53;2.00;;;;;;;;;;4166527;28;20060;-74
2022/06/23 10:02:10;;;;;;;6.72;1.52;;;;;;;;;;4167500;28;20062;-74
2022/06/23 10:04:25;;;;;;;6.05;2.58;;;;;;;;;;4169715;28;20061;-75
2022/06/23 10:06:39;;;;;;;5.03;2.05;;;;;;;;;;4168093;28;20065;-76
2022/06/23 10:08:47;;;;;;;6.03;2.00;;;;;;;;;;4169833;28;20060;-75
2022/06/23 10:10:55;;;;;;;5.05;2.15;;;;;;;;;;4163634;28;20709;-74
2022/06/23 10:13:03;;;;;;;7.18;1.98;;;;;;;;;;4169416;28;20802;-75
2022/06/23 10:15:12;;;;;;;8.27;2.72;;;;;;;;;;4165654;28;20792;-76
2022/06/23 10:17:33;;;;;;;5.85;2.53;;;;;;;;;;4167843;28;20054;-74
2022/06/23 10:19:54;;;;;;;4.57;1.67;;;;;;;;;;4164222;28;20050;-75
2022/06/23 10:22:15;;;;;;;4.80;2.30;;;;;;;;;;4169787;28;20837;-75
2022/06/23 10:24:17;;;;;;;7.68;2.05;;;;;;;;;;4161619;28;20057;-76
2022/06/23 10:26:26;;;;;;;8.52;2.83;;;;;;;;;;4166418;28;20054;-77
2022/06/23 10:28:41;;;;;;;4.15;1.95;;;;;;;;;;4161689;28;20636;-75
2022/06/23 10:30:43;;;;;;;8.25;2.08;;;;;;;;;;4160777;28;20799;-75
2022/06/23 10:33:04;;;;;;;7.68;1.88;;;;;;;;;;4163329;28;20770;-75
2022/06/23 10:35:06;;;;;;;;;;;;;;;;;;4173334;28;20054;-76
2022/06/23 10:37:11;;;;;;;6.40;2.38;;;;;;;;;;4163488;28;43035;-75
2022/06/23 10:39:24;;;;;;;6.60;2.42;;;;;;;;;;4166684;28;20136;-75
2022/06/23 10:41:45;;;;;;;4.85;1.65;;;;;;;;;;4163983;28;20780;-75
2022/06/23 10:43:55;;;;;;;5.50;2.33;;;;;;;;;;4175233;28;20608;-75
2022/06/23 10:46:02;;;;;;;3.78;1.77;;;;;;;;;;4168276;28;20065;-75
2022/06/23 10:48:16;;;;;;;7.18;1.50;;;;;;;;;;4175720;28;20096;-75
2022/06/23 10:50:41;;;;;;;4.22;1.67;;;;;;;;;;4172973;28;20065;-75
2022/06/23 10:53:25;;;;;;;6.15;1.98;;;;;;;;;;4161185;28;20061;-74
2022/06/23 10:55:41;;;;;;;5.10;1.55;;;;;;;;;;4141986;28;20058;-74
2022/06/23 10:57:53;;;;;;;10.43;1.80;;;;;;;;;;4183507;28;20134;-74
2022/06/23 11:00:02;;;;;;;6.28;2.42;;;;;;;;;;4171286;28;20088;-75
2022/06/23 11:02:04;;;;;;;4.20;1.75;;;;;;;;;;4166115;28;20069;-74
2022/06/23 11:04:36;;;;;;;7.20;2.22;;;;;;;;;;4173050;28;20062;-75
2022/06/23 11:06:50;;;;;;;7.05;2.15;;;;;;;;;;4138306;28;20059;-75
2022/06/23 11:09:03;;;;;;;7.55;1.90;;;;;;;;;;4170802;28;20064;-75
2022/06/23 11:11:14;;;;;;;7.57;2.17;;;;;;;;;;4166391;28;20683;-75
2022/06/23 11:13:36;;;;;;;9.20;2.33;;;;;;;;;;4168270;28;20648;-74
2022/06/23 11:15:52;;;;;;;3.90;1.45;;;;;;;;;;4166211;28;20648;-74
2022/06/23 11:17:55;;;;;;;8.50;2.45;;;;;;;;;;4157569;28;20109;-75
2022/06/23 11:20:14;;;;;;;2.33;1.35;;;;;;;;;;4160865;28;20061;-75
2022/06/23 11:22:19;;;;;;;4.22;1.42;;;;;;;;;;4165903;28;20054;-77
2022/06/23 11:24:29;;;;;;;5.07;1.52;;;;;;;;;;4164567;28;20050;-75
2022/06/23 11:26:50;;;;;;;7.10;2.67;;;;;;;;;;4170205;28;20057;-75
2022/06/23 11:28:55;;;;;;;4.20;1.80;;;;;;;;;;4159422;28;20069;-75
2022/06/23 11:31:00;;;;;;;6.70;1.58;;;;;;;;;;4161358;28;20088;-75
2022/06/23 11:33:24;;;;;;;8.88;2.35;;;;;;;;;;4163019;28;20092;-75
2022/06/23 11:35:41;;;;;;;5.13;1.70;;;;;;;;;;4171646;28;20801;-75
2022/06/23 11:38:02;;;;;;;13.75;2.15;;;;;;;;;;4167818;28;20128;-75
2022/06/23 11:40:04;;;;;;;;;;;;;;;;;;4168704;28;20132;-75
2022/06/23 11:42:21;;;;;;;4.85;1.77;;;;;;;;;;4170760;28;43595;-75
2022/06/23 11:44:35;;;;;;;6.40;1.50;;;;;;;;;;4166305;28;20658;-76
2022/06/23 11:46:42;;;;;;;8.93;2.03;;;;;;;;;;4165825;28;20097;-75
2022/06/23 11:48:44;;;;;;;5.32;1.60;;;;;;;;;;4168612;28;20089;-75
2022/06/23 11:50:47;;;;;;;3.35;1.60;;;;;;;;;;4170470;28;20176;-75
2022/06/23 11:53:03;;;;;;;7.10;2.20;;;;;;;;;;4173038;28;20987;-75
2022/06/23 11:55:17;;;;;;;5.80;1.80;;;;;;;;;;4166438;28;20066;-75
2022/06/23 11:57:35;;;;;;;7.47;1.75;;;;;;;;;;4166547;28;20054;-76
2022/06/23 11:59:40;;;;;;;4.05;1.80;;;;;;;;;;4169638;28;20054;-75
2022/06/23 12:02:02;;;;;;;3.50;1.42;;;;;;;;;;4165043;28;20058;-75
2022/06/23 12:04:10;;;;;;;5.32;1.88;;;;;;;;;;4167055;28;20260;-75
2022/06/23 12:06:31;;;;;;;9.10;2.53;;;;;;;;;;4170948;28;20062;-76
2022/06/23 12:08:40;;;;;;;4.28;1.60;;;;;;;;;;4170500;28;20730;-75
2022/06/23 12:10:42;;;;;;;3.65;1.90;;;;;;;;;;4169407;28;20857;-76
2022/06/23 12:12:45;;;;;;;5.30;2.15;;;;;;;;;;4169659;28;20068;-75
2022/06/23 12:14:50;;;;;;;5.05;1.98;;;;;;;;;;4169633;28;20061;-76
2022/06/23 12:16:58;;;;;;;6.03;1.75;;;;;;;;;;4170393;28;20058;-75
2022/06/23 12:19:05;;;;;;;6.47;1.65;;;;;;;;;;4172378;28;20053;-77
2022/06/23 12:21:24;;;;;;;4.85;1.90;;;;;;;;;;4169419;28;20121;-76
2022/06/23 12:23:36;;;;;;;8.43;1.92;;;;;;;;;;4180390;28;20064;-74
2022/06/23 12:25:57;;;;;;;2.90;1.80;;;;;;;;;;4176143;28;20062;-76
2022/06/23 12:28:18;;;;;;;7.22;1.30;;;;;;;;;;4169334;28;20062;-75
2022/06/23 12:30:20;;;;;;;6.10;1.50;;;;;;;;;;4169019;28;20884;-75
2022/06/23 12:32:27;;;;;;;2.58;1.58;;;;;;;;;;4169395;28;20136;-76
2022/06/23 12:34:36;;;;;;;8.00;1.95;;;;;;;;;;4167129;28;20158;-76
2022/06/23 12:36:47;;;;;;;6.70;1.85;;;;;;;;;;4164099;28;20068;-76
2022/06/23 12:38:55;;;;;;;2.88;1.70;;;;;;;;;;4167012;28;20093;-75
2022/06/23 12:41:11;;;;;;;4.00;1.60;;;;;;;;;;4165998;28;20100;-75
2022/06/23 12:43:17;;;;;;;4.55;1.20;;;;;;;;;;4167476;28;20069;-76
2022/06/23 12:45:37;;;;;;;5.60;1.88;;;;;;;;;;4168475;28;20069;-75
2022/06/23 12:47:54;;;;;;;4.35;1.60;;;;;;;;;;4169187;28;20192;-76
2022/06/23 12:50:12;;;;;;;6.60;2.63;;;;;;;;;;4169125;28;20058;-76
2022/06/23 12:52:25;;;;;;;6.50;2.03;;;;;;;;;;4168288;28;20062;-75
2022/06/23 12:54:45;;;;;;;5.70;1.98;;;;;;;;;;4163997;28;20058;-75
2022/06/23 12:57:08;;;;;;;5.30;2.25;;;;;;;;;;4170675;28;20191;-76
2022/06/23 12:59:16;;;;;;;8.27;1.90;;;;;;;;;;4167174;28;20635;-75
2022/06/23 13:01:21;;;;;;;13.27;2.00;;;;;;;;;;4163483;28;20162;-75
2022/06/23 13:03:41;;;;;;;5.10;1.70;;;;;;;;;;4166758;28;20066;-75
2022/06/23 13:05:49;;;;;;;5.82;1.90;;;;;;;;;;4165318;28;20053;-75